sensor_id;sensor_type;location;lat;lon;timestamp;P1;durP1;ratioP1;P2;durP2;ratioP2
21833;SDS011;11079;51.092;3.458;2022-08-18T00:02:25;107.28;;;54.63;;
21833;SDS011;11079;51.092;3.458;2022-08-18T00:04:50;103.13;;;52.50;;
21833;SDS011;11079;51.092;3.458;2022-08-18T00:07:18;101.85;;;53.50;;
21833;SDS011;11079;51.092;3.458;2022-08-18T00:09:46;116.20;;;56.13;;
21833;SDS011;11079;51.092;3.458;2022-08-18T00:12:14;108.15;;;57.13;;
21833;SDS011;11079;51.092;3.458;2022-08-18T00:14:48;112.90;;;58.95;;
21833;SDS011;11079;51.092;3.458;2022-08-18T00:17:14;110.55;;;58.03;;
21833;SDS011;11079;51.092;3.458;2022-08-18T00:19:40;126.25;;;62.58;;
21833;SDS011;11079;51.092;3.458;2022-08-18T00:22:06;111.15;;;58.47;;
21833;SDS011;11079;51.092;3.458;2022-08-18T00:24:32;108.93;;;56.38;;
21833;SDS011;11079;51.092;3.458;2022-08-18T00:26:58;111.63;;;56.60;;
21833;SDS011;11079;51.092;3.458;2022-08-18T00:29:23;96.15;;;49.20;;
21833;SDS011;11079;51.092;3.458;2022-08-18T00:31:49;101.45;;;51.70;;
21833;SDS011;11079;51.092;3.458;2022-08-18T00:34:15;106.00;;;54.55;;
21833;SDS011;11079;51.092;3.458;2022-08-18T00:36:41;114.05;;;57.03;;
21833;SDS011;11079;51.092;3.458;2022-08-18T00:39:07;126.30;;;59.97;;
21833;SDS011;11079;51.092;3.458;2022-08-18T00:41:33;127.53;;;63.13;;
21833;SDS011;11079;51.092;3.458;2022-08-18T00:43:59;122.93;;;61.50;;
21833;SDS011;11079;51.092;3.458;2022-08-18T00:46:28;133.07;;;62.17;;
21833;SDS011;11079;51.092;3.458;2022-08-18T00:48:57;121.93;;;60.80;;
21833;SDS011;11079;51.092;3.458;2022-08-18T00:54:20;113.07;;;55.47;;
21833;SDS011;11079;51.092;3.458;2022-08-18T00:56:49;204.60;;;57.90;;
21833;SDS011;11079;51.092;3.458;2022-08-18T01:01:53;156.77;;;52.22;;
21833;SDS011;11079;51.092;3.458;2022-08-18T01:04:29;97.00;;;50.67;;
21833;SDS011;11079;51.092;3.458;2022-08-18T01:07:19;110.13;;;52.80;;
21833;SDS011;11079;51.092;3.458;2022-08-18T01:09:50;101.65;;;54.22;;
21833;SDS011;11079;51.092;3.458;2022-08-18T01:12:17;91.32;;;50.45;;
21833;SDS011;11079;51.092;3.458;2022-08-18T01:14:43;104.88;;;53.38;;
21833;SDS011;11079;51.092;3.458;2022-08-18T01:17:10;105.43;;;55.17;;
21833;SDS011;11079;51.092;3.458;2022-08-18T01:19:55;113.68;;;57.60;;
21833;SDS011;11079;51.092;3.458;2022-08-18T01:25:11;120.07;;;60.35;;
21833;SDS011;11079;51.092;3.458;2022-08-18T01:27:59;123.55;;;62.58;;
21833;SDS011;11079;51.092;3.458;2022-08-18T01:30:28;111.65;;;59.63;;
21833;SDS011;11079;51.092;3.458;2022-08-18T01:32:55;105.40;;;55.55;;
21833;SDS011;11079;51.092;3.458;2022-08-18T01:35:22;120.85;;;58.25;;
21833;SDS011;11079;51.092;3.458;2022-08-18T01:37:49;110.32;;;55.78;;
21833;SDS011;11079;51.092;3.458;2022-08-18T01:40:19;103.85;;;53.83;;
21833;SDS011;11079;51.092;3.458;2022-08-18T01:42:47;97.13;;;54.45;;
21833;SDS011;11079;51.092;3.458;2022-08-18T01:45:14;96.35;;;51.92;;
21833;SDS011;11079;51.092;3.458;2022-08-18T01:47:41;94.05;;;51.15;;
21833;SDS011;11079;51.092;3.458;2022-08-18T01:50:07;74.72;;;45.35;;
21833;SDS011;11079;51.092;3.458;2022-08-18T01:52:36;67.88;;;42.90;;
21833;SDS011;11079;51.092;3.458;2022-08-18T01:55:02;79.25;;;44.65;;
21833;SDS011;11079;51.092;3.458;2022-08-18T01:57:29;76.90;;;46.70;;
21833;SDS011;11079;51.092;3.458;2022-08-18T01:59:55;111.95;;;53.22;;
21833;SDS011;11079;51.092;3.458;2022-08-18T02:02:25;94.70;;;52.33;;
21833;SDS011;11079;51.092;3.458;2022-08-18T02:04:58;87.60;;;48.10;;
21833;SDS011;11079;51.092;3.458;2022-08-18T02:07:29;91.20;;;50.00;;
21833;SDS011;11079;51.092;3.458;2022-08-18T02:09:54;85.63;;;48.58;;
21833;SDS011;11079;51.092;3.458;2022-08-18T02:12:20;80.40;;;45.85;;
21833;SDS011;11079;51.092;3.458;2022-08-18T02:14:45;86.65;;;47.38;;
21833;SDS011;11079;51.092;3.458;2022-08-18T02:17:14;85.07;;;48.33;;
21833;SDS011;11079;51.092;3.458;2022-08-18T02:19:41;95.57;;;52.60;;
21833;SDS011;11079;51.092;3.458;2022-08-18T02:22:09;87.18;;;48.28;;
21833;SDS011;11079;51.092;3.458;2022-08-18T02:24:40;78.82;;;46.10;;
21833;SDS011;11079;51.092;3.458;2022-08-18T02:27:07;80.47;;;45.55;;
21833;SDS011;11079;51.092;3.458;2022-08-18T02:29:33;84.03;;;48.45;;
21833;SDS011;11079;51.092;3.458;2022-08-18T02:31:59;74.13;;;43.78;;
21833;SDS011;11079;51.092;3.458;2022-08-18T02:34:25;75.68;;;45.20;;
21833;SDS011;11079;51.092;3.458;2022-08-18T02:36:51;72.63;;;43.33;;
21833;SDS011;11079;51.092;3.458;2022-08-18T02:39:16;78.57;;;46.63;;
21833;SDS011;11079;51.092;3.458;2022-08-18T02:41:42;79.35;;;45.17;;
21833;SDS011;11079;51.092;3.458;2022-08-18T02:44:09;74.25;;;43.85;;
21833;SDS011;11079;51.092;3.458;2022-08-18T02:46:35;81.22;;;43.22;;
21833;SDS011;11079;51.092;3.458;2022-08-18T02:49:01;80.65;;;46.92;;
21833;SDS011;11079;51.092;3.458;2022-08-18T02:51:27;81.22;;;46.05;;
21833;SDS011;11079;51.092;3.458;2022-08-18T02:53:54;80.72;;;45.63;;
21833;SDS011;11079;51.092;3.458;2022-08-18T02:56:23;79.40;;;43.90;;
21833;SDS011;11079;51.092;3.458;2022-08-18T02:58:53;73.20;;;43.08;;
21833;SDS011;11079;51.092;3.458;2022-08-18T03:01:25;74.85;;;42.28;;
21833;SDS011;11079;51.092;3.458;2022-08-18T03:03:53;72.15;;;42.88;;
21833;SDS011;11079;51.092;3.458;2022-08-18T03:06:21;74.93;;;41.08;;
21833;SDS011;11079;51.092;3.458;2022-08-18T03:08:48;65.65;;;40.70;;
21833;SDS011;11079;51.092;3.458;2022-08-18T03:11:16;64.70;;;38.90;;
21833;SDS011;11079;51.092;3.458;2022-08-18T03:13:44;63.08;;;40.47;;
21833;SDS011;11079;51.092;3.458;2022-08-18T03:16:10;60.35;;;37.75;;
21833;SDS011;11079;51.092;3.458;2022-08-18T03:18:37;58.08;;;36.15;;
21833;SDS011;11079;51.092;3.458;2022-08-18T03:21:09;54.42;;;34.00;;
21833;SDS011;11079;51.092;3.458;2022-08-18T03:23:37;149.88;;;35.60;;
21833;SDS011;11079;51.092;3.458;2022-08-18T03:26:05;180.35;;;39.63;;
21833;SDS011;11079;51.092;3.458;2022-08-18T03:28:36;278.50;;;43.38;;
21833;SDS011;11079;51.092;3.458;2022-08-18T03:31:04;343.48;;;49.03;;
21833;SDS011;11079;51.092;3.458;2022-08-18T03:33:30;318.30;;;51.78;;
21833;SDS011;11079;51.092;3.458;2022-08-18T03:35:55;271.52;;;45.97;;
21833;SDS011;11079;51.092;3.458;2022-08-18T03:38:27;272.25;;;46.72;;
21833;SDS011;11079;51.092;3.458;2022-08-18T03:40:52;113.53;;;34.50;;
21833;SDS011;11079;51.092;3.458;2022-08-18T03:43:18;350.40;;;51.70;;
21833;SDS011;11079;51.092;3.458;2022-08-18T03:45:44;268.85;;;49.42;;
21833;SDS011;11079;51.092;3.458;2022-08-18T03:48:10;141.32;;;38.65;;
21833;SDS011;11079;51.092;3.458;2022-08-18T03:50:36;72.55;;;36.05;;
21833;SDS011;11079;51.092;3.458;2022-08-18T03:53:02;70.95;;;35.30;;
21833;SDS011;11079;51.092;3.458;2022-08-18T03:55:29;61.58;;;36.95;;
21833;SDS011;11079;51.092;3.458;2022-08-18T03:57:59;55.42;;;34.28;;
21833;SDS011;11079;51.092;3.458;2022-08-18T04:00:29;65.88;;;38.35;;
21833;SDS011;11079;51.092;3.458;2022-08-18T04:02:56;66.03;;;41.33;;
21833;SDS011;11079;51.092;3.458;2022-08-18T04:05:25;64.72;;;40.42;;
21833;SDS011;11079;51.092;3.458;2022-08-18T04:07:52;76.82;;;44.33;;
21833;SDS011;11079;51.092;3.458;2022-08-18T04:10:18;72.63;;;43.42;;
21833;SDS011;11079;51.092;3.458;2022-08-18T04:12:44;62.70;;;38.65;;
21833;SDS011;11079;51.092;3.458;2022-08-18T04:15:10;55.78;;;36.67;;
21833;SDS011;11079;51.092;3.458;2022-08-18T04:17:35;59.33;;;37.70;;
21833;SDS011;11079;51.092;3.458;2022-08-18T04:20:01;55.28;;;34.90;;
21833;SDS011;11079;51.092;3.458;2022-08-18T04:22:28;47.30;;;32.05;;
21833;SDS011;11079;51.092;3.458;2022-08-18T04:24:57;45.42;;;31.10;;
21833;SDS011;11079;51.092;3.458;2022-08-18T04:27:25;43.30;;;29.52;;
21833;SDS011;11079;51.092;3.458;2022-08-18T04:29:51;45.05;;;30.90;;
21833;SDS011;11079;51.092;3.458;2022-08-18T04:32:17;50.60;;;31.60;;
21833;SDS011;11079;51.092;3.458;2022-08-18T04:34:43;52.63;;;34.38;;
21833;SDS011;11079;51.092;3.458;2022-08-18T04:37:09;51.05;;;33.92;;
21833;SDS011;11079;51.092;3.458;2022-08-18T04:39:35;50.90;;;33.75;;
21833;SDS011;11079;51.092;3.458;2022-08-18T04:42:01;55.05;;;34.38;;
21833;SDS011;11079;51.092;3.458;2022-08-18T04:44:28;53.88;;;34.45;;
21833;SDS011;11079;51.092;3.458;2022-08-18T04:46:54;55.03;;;35.80;;
21833;SDS011;11079;51.092;3.458;2022-08-18T04:49:22;55.92;;;35.40;;
21833;SDS011;11079;51.092;3.458;2022-08-18T04:51:50;58.92;;;35.63;;
21833;SDS011;11079;51.092;3.458;2022-08-18T04:54:36;60.20;;;37.85;;
21833;SDS011;11079;51.092;3.458;2022-08-18T04:57:21;66.55;;;40.15;;
21833;SDS011;11079;51.092;3.458;2022-08-18T04:59:48;68.35;;;41.40;;
21833;SDS011;11079;51.092;3.458;2022-08-18T05:02:16;67.72;;;40.25;;
21833;SDS011;11079;51.092;3.458;2022-08-18T05:04:43;57.22;;;37.03;;
21833;SDS011;11079;51.092;3.458;2022-08-18T05:07:14;59.35;;;38.35;;
21833;SDS011;11079;51.092;3.458;2022-08-18T05:09:44;61.92;;;37.38;;
21833;SDS011;11079;51.092;3.458;2022-08-18T05:12:11;59.97;;;36.22;;
21833;SDS011;11079;51.092;3.458;2022-08-18T05:14:41;54.20;;;35.92;;
21833;SDS011;11079;51.092;3.458;2022-08-18T05:17:08;58.28;;;37.85;;
21833;SDS011;11079;51.092;3.458;2022-08-18T05:19:37;51.22;;;33.80;;
21833;SDS011;11079;51.092;3.458;2022-08-18T05:22:03;50.90;;;35.55;;
21833;SDS011;11079;51.092;3.458;2022-08-18T05:24:31;57.00;;;36.40;;
21833;SDS011;11079;51.092;3.458;2022-08-18T05:26:59;55.70;;;35.33;;
21833;SDS011;11079;51.092;3.458;2022-08-18T05:29:25;44.58;;;34.03;;
21833;SDS011;11079;51.092;3.458;2022-08-18T05:31:51;43.08;;;32.88;;
21833;SDS011;11079;51.092;3.458;2022-08-18T05:34:18;40.63;;;31.67;;
21833;SDS011;11079;51.092;3.458;2022-08-18T05:39:14;33.45;;;27.98;;
21833;SDS011;11079;51.092;3.458;2022-08-18T05:44:32;29.55;;;24.67;;
21833;SDS011;11079;51.092;3.458;2022-08-18T05:47:16;30.85;;;26.45;;
21833;SDS011;11079;51.092;3.458;2022-08-18T05:49:43;29.85;;;25.83;;
21833;SDS011;11079;51.092;3.458;2022-08-18T05:52:54;32.17;;;26.00;;
21833;SDS011;11079;51.092;3.458;2022-08-18T05:56:05;30.35;;;24.55;;
21833;SDS011;11079;51.092;3.458;2022-08-18T05:58:32;32.50;;;24.23;;
21833;SDS011;11079;51.092;3.458;2022-08-18T06:01:14;28.02;;;22.58;;
21833;SDS011;11079;51.092;3.458;2022-08-18T06:03:51;26.52;;;23.02;;
21833;SDS011;11079;51.092;3.458;2022-08-18T06:06:26;23.48;;;20.67;;
21833;SDS011;11079;51.092;3.458;2022-08-18T06:09:12;25.92;;;22.00;;
21833;SDS011;11079;51.092;3.458;2022-08-18T06:11:48;23.85;;;21.17;;
21833;SDS011;11079;51.092;3.458;2022-08-18T06:14:15;23.20;;;19.48;;
21833;SDS011;11079;51.092;3.458;2022-08-18T06:16:45;25.13;;;20.13;;
21833;SDS011;11079;51.092;3.458;2022-08-18T06:28:21;24.58;;;21.42;;
21833;SDS011;11079;51.092;3.458;2022-08-18T06:30:58;28.33;;;21.48;;
21833;SDS011;11079;51.092;3.458;2022-08-18T06:39:07;24.92;;;22.15;;
21833;SDS011;11079;51.092;3.458;2022-08-18T06:41:46;23.75;;;21.13;;
21833;SDS011;11079;51.092;3.458;2022-08-18T06:49:47;24.90;;;21.75;;
21833;SDS011;11079;51.092;3.458;2022-08-18T06:52:26;24.65;;;21.40;;
21833;SDS011;11079;51.092;3.458;2022-08-18T06:54:58;24.38;;;21.85;;
21833;SDS011;11079;51.092;3.458;2022-08-18T06:57:34;25.60;;;23.00;;
21833;SDS011;11079;51.092;3.458;2022-08-18T07:00:10;23.95;;;21.75;;
21833;SDS011;11079;51.092;3.458;2022-08-18T07:02:54;22.30;;;20.02;;
21833;SDS011;11079;51.092;3.458;2022-08-18T07:05:34;24.40;;;22.02;;
21833;SDS011;11079;51.092;3.458;2022-08-18T07:08:27;22.73;;;20.50;;
21833;SDS011;11079;51.092;3.458;2022-08-18T07:11:10;25.35;;;22.70;;
21833;SDS011;11079;51.092;3.458;2022-08-18T07:13:42;24.33;;;21.77;;
21833;SDS011;11079;51.092;3.458;2022-08-18T07:16:22;25.58;;;23.08;;
21833;SDS011;11079;51.092;3.458;2022-08-18T07:19:05;24.55;;;22.02;;
21833;SDS011;11079;51.092;3.458;2022-08-18T07:21:35;25.10;;;22.42;;
21833;SDS011;11079;51.092;3.458;2022-08-18T07:24:07;23.27;;;21.08;;
21833;SDS011;11079;51.092;3.458;2022-08-18T07:27:19;24.98;;;22.48;;
21833;SDS011;11079;51.092;3.458;2022-08-18T07:29:34;23.48;;;21.10;;
21833;SDS011;11079;51.092;3.458;2022-08-18T07:32:16;25.88;;;21.42;;
21833;SDS011;11079;51.092;3.458;2022-08-18T07:34:46;24.73;;;22.30;;
21833;SDS011;11079;51.092;3.458;2022-08-18T07:45:30;18.65;;;16.73;;
21833;SDS011;11079;51.092;3.458;2022-08-18T07:53:38;19.88;;;17.88;;
21833;SDS011;11079;51.092;3.458;2022-08-18T07:56:17;19.63;;;17.55;;
21833;SDS011;11079;51.092;3.458;2022-08-18T07:58:47;18.38;;;16.67;;
21833;SDS011;11079;51.092;3.458;2022-08-18T08:02:05;17.60;;;16.00;;
21833;SDS011;11079;51.092;3.458;2022-08-18T08:04:24;21.33;;;16.00;;
21833;SDS011;11079;51.092;3.458;2022-08-18T08:12:46;18.88;;;17.00;;
21833;SDS011;11079;51.092;3.458;2022-08-18T08:16:07;18.42;;;16.60;;
21833;SDS011;11079;51.092;3.458;2022-08-18T08:18:43;18.83;;;16.88;;
21833;SDS011;11079;51.092;3.458;2022-08-18T08:21:15;19.10;;;17.30;;
21833;SDS011;11079;51.092;3.458;2022-08-18T08:23:49;18.63;;;16.75;;
21833;SDS011;11079;51.092;3.458;2022-08-18T08:26:31;19.08;;;16.55;;
21833;SDS011;11079;51.092;3.458;2022-08-18T08:29:37;17.27;;;15.68;;
21833;SDS011;11079;51.092;3.458;2022-08-18T08:32:32;16.98;;;15.18;;
21833;SDS011;11079;51.092;3.458;2022-08-18T08:35:10;17.83;;;16.05;;
21833;SDS011;11079;51.092;3.458;2022-08-18T08:37:43;15.00;;;13.35;;
21833;SDS011;11079;51.092;3.458;2022-08-18T08:40:31;16.25;;;14.55;;
21833;SDS011;11079;51.092;3.458;2022-08-18T08:43:29;17.55;;;15.25;;
21833;SDS011;11079;51.092;3.458;2022-08-18T08:46:34;14.82;;;13.52;;
21833;SDS011;11079;51.092;3.458;2022-08-18T08:49:08;16.50;;;14.80;;
21833;SDS011;11079;51.092;3.458;2022-08-18T08:51:48;18.35;;;14.10;;
21833;SDS011;11079;51.092;3.458;2022-08-18T08:54:29;15.73;;;13.55;;
21833;SDS011;11079;51.092;3.458;2022-08-18T08:57:08;15.85;;;13.55;;
21833;SDS011;11079;51.092;3.458;2022-08-18T08:59:36;13.07;;;11.32;;
21833;SDS011;11079;51.092;3.458;2022-08-18T09:10:04;12.60;;;11.27;;
21833;SDS011;11079;51.092;3.458;2022-08-18T09:18:24;11.70;;;10.50;;
21833;SDS011;11079;51.092;3.458;2022-08-18T09:24:13;14.15;;;12.85;;
21833;SDS011;11079;51.092;3.458;2022-08-18T09:26:50;14.30;;;12.80;;
21833;SDS011;11079;51.092;3.458;2022-08-18T09:37:19;14.77;;;13.30;;
21833;SDS011;11079;51.092;3.458;2022-08-18T09:39:58;15.43;;;13.88;;
21833;SDS011;11079;51.092;3.458;2022-08-18T09:43:13;16.55;;;14.85;;
21833;SDS011;11079;51.092;3.458;2022-08-18T09:45:57;14.45;;;13.05;;
21833;SDS011;11079;51.092;3.458;2022-08-18T09:48:28;14.93;;;11.23;;
21833;SDS011;11079;51.092;3.458;2022-08-18T09:56:15;14.70;;;11.88;;
21833;SDS011;11079;51.092;3.458;2022-08-18T10:06:38;13.13;;;11.77;;
21833;SDS011;11079;51.092;3.458;2022-08-18T10:17:22;14.43;;;10.50;;
21833;SDS011;11079;51.092;3.458;2022-08-18T10:19:58;11.63;;;10.40;;
21833;SDS011;11079;51.092;3.458;2022-08-18T10:22:47;11.75;;;10.05;;
21833;SDS011;11079;51.092;3.458;2022-08-18T10:25:29;10.65;;;9.65;;
21833;SDS011;11079;51.092;3.458;2022-08-18T10:27:57;17.25;;;10.60;;
21833;SDS011;11079;51.092;3.458;2022-08-18T10:32:58;13.05;;;9.55;;
21833;SDS011;11079;51.092;3.458;2022-08-18T10:40:37;11.60;;;9.15;;
21833;SDS011;11079;51.092;3.458;2022-08-18T10:43:08;10.60;;;9.32;;
21833;SDS011;11079;51.092;3.458;2022-08-18T10:45:54;9.57;;;8.43;;
21833;SDS011;11079;51.092;3.458;2022-08-18T10:48:26;9.50;;;7.75;;
21833;SDS011;11079;51.092;3.458;2022-08-18T10:51:04;11.40;;;9.05;;
21833;SDS011;11079;51.092;3.458;2022-08-18T10:56:28;10.73;;;9.63;;
21833;SDS011;11079;51.092;3.458;2022-08-18T10:59:05;10.73;;;9.68;;
21833;SDS011;11079;51.092;3.458;2022-08-18T11:02:20;9.18;;;8.38;;
21833;SDS011;11079;51.092;3.458;2022-08-18T11:04:59;8.85;;;6.65;;
21833;SDS011;11079;51.092;3.458;2022-08-18T11:07:30;9.02;;;7.47;;
21833;SDS011;11079;51.092;3.458;2022-08-18T11:09:57;8.27;;;7.47;;
21833;SDS011;11079;51.092;3.458;2022-08-18T11:15:30;10.20;;;7.80;;
21833;SDS011;11079;51.092;3.458;2022-08-18T11:18:15;12.65;;;8.15;;
21833;SDS011;11079;51.092;3.458;2022-08-18T11:20:52;9.80;;;8.80;;
21833;SDS011;11079;51.092;3.458;2022-08-18T11:23:38;11.73;;;8.18;;
21833;SDS011;11079;51.092;3.458;2022-08-18T11:26:14;7.90;;;7.13;;
21833;SDS011;11079;51.092;3.458;2022-08-18T11:28:40;11.52;;;8.23;;
21833;SDS011;11079;51.092;3.458;2022-08-18T11:31:06;9.82;;;7.43;;
21833;SDS011;11079;51.092;3.458;2022-08-18T11:33:32;8.77;;;7.70;;
21833;SDS011;11079;51.092;3.458;2022-08-18T11:35:58;8.30;;;7.50;;
21833;SDS011;11079;51.092;3.458;2022-08-18T11:38:25;7.93;;;7.13;;
21833;SDS011;11079;51.092;3.458;2022-08-18T11:41:13;7.55;;;6.70;;
21833;SDS011;11079;51.092;3.458;2022-08-18T11:43:42;6.82;;;5.60;;
21833;SDS011;11079;51.092;3.458;2022-08-18T11:46:13;5.20;;;4.80;;
21833;SDS011;11079;51.092;3.458;2022-08-18T11:48:49;6.20;;;5.32;;
21833;SDS011;11079;51.092;3.458;2022-08-18T11:56:36;7.85;;;6.90;;
21833;SDS011;11079;51.092;3.458;2022-08-18T11:59:06;7.10;;;6.50;;
21833;SDS011;11079;51.092;3.458;2022-08-18T12:01:56;8.68;;;7.13;;
21833;SDS011;11079;51.092;3.458;2022-08-18T12:07:05;10.35;;;7.20;;
21833;SDS011;11079;51.092;3.458;2022-08-18T12:09:42;8.15;;;6.90;;
21833;SDS011;11079;51.092;3.458;2022-08-18T12:14:54;8.30;;;7.53;;
21833;SDS011;11079;51.092;3.458;2022-08-18T12:17:20;10.27;;;7.13;;
21833;SDS011;11079;51.092;3.458;2022-08-18T12:19:46;8.90;;;7.95;;
21833;SDS011;11079;51.092;3.458;2022-08-18T12:22:16;8.60;;;7.80;;
21833;SDS011;11079;51.092;3.458;2022-08-18T12:24:49;9.95;;;6.57;;
21833;SDS011;11079;51.092;3.458;2022-08-18T12:27:17;10.25;;;9.25;;
21833;SDS011;11079;51.092;3.458;2022-08-18T12:29:45;10.52;;;8.27;;
21833;SDS011;11079;51.092;3.458;2022-08-18T12:32:11;9.48;;;7.95;;
21833;SDS011;11079;51.092;3.458;2022-08-18T12:34:37;11.77;;;7.82;;
21833;SDS011;11079;51.092;3.458;2022-08-18T12:37:06;9.43;;;7.75;;
21833;SDS011;11079;51.092;3.458;2022-08-18T12:39:34;9.27;;;8.30;;
21833;SDS011;11079;51.092;3.458;2022-08-18T12:42:00;8.50;;;7.60;;
21833;SDS011;11079;51.092;3.458;2022-08-18T12:44:26;8.20;;;7.28;;
21833;SDS011;11079;51.092;3.458;2022-08-18T12:46:52;8.15;;;7.40;;
21833;SDS011;11079;51.092;3.458;2022-08-18T12:49:23;8.27;;;7.45;;
21833;SDS011;11079;51.092;3.458;2022-08-18T12:51:49;9.27;;;8.20;;
21833;SDS011;11079;51.092;3.458;2022-08-18T12:54:17;9.68;;;7.63;;
21833;SDS011;11079;51.092;3.458;2022-08-18T12:56:43;9.73;;;8.88;;
21833;SDS011;11079;51.092;3.458;2022-08-18T12:59:12;9.35;;;8.15;;
21833;SDS011;11079;51.092;3.458;2022-08-18T13:01:38;10.55;;;7.60;;
21833;SDS011;11079;51.092;3.458;2022-08-18T13:04:04;13.23;;;8.82;;
21833;SDS011;11079;51.092;3.458;2022-08-18T13:06:31;10.48;;;8.68;;
21833;SDS011;11079;51.092;3.458;2022-08-18T13:09:01;10.40;;;8.00;;
21833;SDS011;11079;51.092;3.458;2022-08-18T13:11:27;9.73;;;7.13;;
21833;SDS011;11079;51.092;3.458;2022-08-18T13:13:53;8.75;;;7.90;;
21833;SDS011;11079;51.092;3.458;2022-08-18T13:16:19;10.68;;;8.20;;
21833;SDS011;11079;51.092;3.458;2022-08-18T13:18:45;9.77;;;6.88;;
21833;SDS011;11079;51.092;3.458;2022-08-18T13:21:12;8.95;;;6.95;;
21833;SDS011;11079;51.092;3.458;2022-08-18T13:23:40;8.77;;;7.65;;
21833;SDS011;11079;51.092;3.458;2022-08-18T13:26:08;10.90;;;8.02;;
21833;SDS011;11079;51.092;3.458;2022-08-18T13:28:48;9.82;;;8.88;;
21833;SDS011;11079;51.092;3.458;2022-08-18T13:31:14;11.55;;;9.88;;
21833;SDS011;11079;51.092;3.458;2022-08-18T13:33:40;11.30;;;9.02;;
21833;SDS011;11079;51.092;3.458;2022-08-18T13:36:06;9.85;;;8.85;;
21833;SDS011;11079;51.092;3.458;2022-08-18T13:38:32;9.60;;;8.50;;
21833;SDS011;11079;51.092;3.458;2022-08-18T13:40:58;8.98;;;8.13;;
21833;SDS011;11079;51.092;3.458;2022-08-18T13:43:34;12.57;;;9.38;;
21833;SDS011;11079;51.092;3.458;2022-08-18T13:46:03;8.80;;;7.90;;
21833;SDS011;11079;51.092;3.458;2022-08-18T13:48:30;10.68;;;8.88;;
21833;SDS011;11079;51.092;3.458;2022-08-18T13:50:56;10.02;;;8.82;;
21833;SDS011;11079;51.092;3.458;2022-08-18T13:53:25;9.90;;;8.90;;
21833;SDS011;11079;51.092;3.458;2022-08-18T13:55:52;11.85;;;9.60;;
21833;SDS011;11079;51.092;3.458;2022-08-18T13:58:21;12.35;;;9.93;;
21833;SDS011;11079;51.092;3.458;2022-08-18T14:00:48;11.40;;;9.70;;
21833;SDS011;11079;51.092;3.458;2022-08-18T14:03:18;12.90;;;11.20;;
21833;SDS011;11079;51.092;3.458;2022-08-18T14:05:47;12.32;;;11.10;;
21833;SDS011;11079;51.092;3.458;2022-08-18T14:08:13;11.88;;;10.27;;
21833;SDS011;11079;51.092;3.458;2022-08-18T14:10:39;16.38;;;10.85;;
21833;SDS011;11079;51.092;3.458;2022-08-18T14:13:05;15.15;;;10.98;;
21833;SDS011;11079;51.092;3.458;2022-08-18T14:15:32;13.27;;;11.88;;
21833;SDS011;11079;51.092;3.458;2022-08-18T14:18:01;11.63;;;10.43;;
21833;SDS011;11079;51.092;3.458;2022-08-18T14:20:28;11.50;;;10.32;;
21833;SDS011;11079;51.092;3.458;2022-08-18T14:23:12;13.20;;;11.38;;
21833;SDS011;11079;51.092;3.458;2022-08-18T14:25:56;12.75;;;11.52;;
21833;SDS011;11079;51.092;3.458;2022-08-18T14:28:40;13.20;;;11.65;;
21833;SDS011;11079;51.092;3.458;2022-08-18T14:31:06;13.70;;;12.05;;
21833;SDS011;11079;51.092;3.458;2022-08-18T14:33:32;14.65;;;11.90;;
21833;SDS011;11079;51.092;3.458;2022-08-18T14:35:58;12.57;;;10.75;;
21833;SDS011;11079;51.092;3.458;2022-08-18T14:38:24;11.75;;;9.90;;
21833;SDS011;11079;51.092;3.458;2022-08-18T14:40:49;12.75;;;10.23;;
21833;SDS011;11079;51.092;3.458;2022-08-18T14:43:17;11.32;;;10.23;;
21833;SDS011;11079;51.092;3.458;2022-08-18T14:45:46;10.93;;;9.82;;
21833;SDS011;11079;51.092;3.458;2022-08-18T14:48:17;13.68;;;12.10;;
21833;SDS011;11079;51.092;3.458;2022-08-18T14:50:47;13.43;;;12.10;;
21833;SDS011;11079;51.092;3.458;2022-08-18T14:53:18;14.10;;;12.07;;
21833;SDS011;11079;51.092;3.458;2022-08-18T14:55:46;14.13;;;10.73;;
21833;SDS011;11079;51.092;3.458;2022-08-18T14:58:16;12.23;;;11.02;;
21833;SDS011;11079;51.092;3.458;2022-08-18T15:00:56;16.08;;;11.75;;
21833;SDS011;11079;51.092;3.458;2022-08-18T15:03:25;11.88;;;10.68;;
21833;SDS011;11079;51.092;3.458;2022-08-18T15:05:53;11.70;;;10.60;;
21833;SDS011;11079;51.092;3.458;2022-08-18T15:08:19;14.38;;;11.27;;
21833;SDS011;11079;51.092;3.458;2022-08-18T15:10:46;11.88;;;10.68;;
21833;SDS011;11079;51.092;3.458;2022-08-18T15:13:12;12.82;;;10.95;;
21833;SDS011;11079;51.092;3.458;2022-08-18T15:15:38;10.93;;;9.90;;
21833;SDS011;11079;51.092;3.458;2022-08-18T15:18:04;12.90;;;10.27;;
21833;SDS011;11079;51.092;3.458;2022-08-18T15:20:32;12.70;;;9.88;;
21833;SDS011;11079;51.092;3.458;2022-08-18T15:23:18;11.43;;;10.13;;
21833;SDS011;11079;51.092;3.458;2022-08-18T15:26:02;10.52;;;9.48;;
21833;SDS011;11079;51.092;3.458;2022-08-18T15:28:28;11.45;;;9.23;;
21833;SDS011;11079;51.092;3.458;2022-08-18T15:30:54;11.32;;;9.32;;
21833;SDS011;11079;51.092;3.458;2022-08-18T15:33:19;10.20;;;9.10;;
21833;SDS011;11079;51.092;3.458;2022-08-18T15:35:47;10.20;;;9.23;;
21833;SDS011;11079;51.092;3.458;2022-08-18T15:38:16;11.85;;;10.38;;
21833;SDS011;11079;51.092;3.458;2022-08-18T15:40:53;11.98;;;9.80;;
21833;SDS011;11079;51.092;3.458;2022-08-18T15:43:27;11.40;;;10.07;;
21833;SDS011;11079;51.092;3.458;2022-08-18T15:45:54;13.15;;;10.90;;
21833;SDS011;11079;51.092;3.458;2022-08-18T15:48:20;13.32;;;10.00;;
21833;SDS011;11079;51.092;3.458;2022-08-18T15:50:48;11.10;;;9.98;;
21833;SDS011;11079;51.092;3.458;2022-08-18T15:53:15;10.65;;;9.55;;
21833;SDS011;11079;51.092;3.458;2022-08-18T15:55:43;16.35;;;9.48;;
21833;SDS011;11079;51.092;3.458;2022-08-18T15:58:10;9.75;;;8.65;;
21833;SDS011;11079;51.092;3.458;2022-08-18T16:00:37;12.35;;;9.30;;
21833;SDS011;11079;51.092;3.458;2022-08-18T16:03:06;10.57;;;9.13;;
21833;SDS011;11079;51.092;3.458;2022-08-18T16:05:38;10.88;;;9.00;;
21833;SDS011;11079;51.092;3.458;2022-08-18T16:08:06;10.07;;;8.25;;
21833;SDS011;11079;51.092;3.458;2022-08-18T16:10:34;9.85;;;8.57;;
21833;SDS011;11079;51.092;3.458;2022-08-18T16:13:02;10.30;;;9.15;;
21833;SDS011;11079;51.092;3.458;2022-08-18T16:15:30;11.70;;;9.52;;
21833;SDS011;11079;51.092;3.458;2022-08-18T16:18:00;9.93;;;8.68;;
21833;SDS011;11079;51.092;3.458;2022-08-18T16:20:25;11.00;;;9.65;;
21833;SDS011;11079;51.092;3.458;2022-08-18T16:22:53;11.60;;;9.48;;
21833;SDS011;11079;51.092;3.458;2022-08-18T16:25:19;11.77;;;9.60;;
21833;SDS011;11079;51.092;3.458;2022-08-18T16:27:45;13.23;;;10.57;;
21833;SDS011;11079;51.092;3.458;2022-08-18T16:30:21;10.95;;;9.82;;
21833;SDS011;11079;51.092;3.458;2022-08-18T16:32:49;11.30;;;10.20;;
21833;SDS011;11079;51.092;3.458;2022-08-18T16:35:16;14.30;;;10.00;;
21833;SDS011;11079;51.092;3.458;2022-08-18T16:37:42;33.83;;;10.98;;
21833;SDS011;11079;51.092;3.458;2022-08-18T16:40:10;11.10;;;9.52;;
21833;SDS011;11079;51.092;3.458;2022-08-18T16:42:37;11.15;;;9.90;;
21833;SDS011;11079;51.092;3.458;2022-08-18T16:45:03;13.75;;;10.05;;
21833;SDS011;11079;51.092;3.458;2022-08-18T16:47:30;11.38;;;9.50;;
21833;SDS011;11079;51.092;3.458;2022-08-18T16:50:02;13.15;;;10.25;;
21833;SDS011;11079;51.092;3.458;2022-08-18T16:52:49;13.10;;;9.93;;
21833;SDS011;11079;51.092;3.458;2022-08-18T16:55:15;11.02;;;9.93;;